sensor_id;sensor_type;location;lat;lon;timestamp;P1;durP1;ratioP1;P2;durP2;ratioP2
39518;SDS011;25200;53.394;10.414;2023-03-11T00:00:15;8.95;;;4.68;;
39518;SDS011;25200;53.394;10.414;2023-03-11T00:02:43;8.15;;;4.55;;
39518;SDS011;25200;53.394;10.414;2023-03-11T00:05:33;8.95;;;4.82;;
39518;SDS011;25200;53.394;10.414;2023-03-11T00:08:03;7.97;;;4.50;;
39518;SDS011;25200;53.394;10.414;2023-03-11T00:10:32;9.38;;;4.85;;
39518;SDS011;25200;53.394;10.414;2023-03-11T00:13:00;8.75;;;4.97;;
39518;SDS011;25200;53.394;10.414;2023-03-11T00:15:27;8.00;;;4.65;;
39518;SDS011;25200;53.394;10.414;2023-03-11T00:17:54;9.07;;;5.20;;
39518;SDS011;25200;53.394;10.414;2023-03-11T00:20:21;9.90;;;5.03;;
39518;SDS011;25200;53.394;10.414;2023-03-11T00:22:52;10.45;;;4.85;;
39518;SDS011;25200;53.394;10.414;2023-03-11T00:25:18;10.27;;;4.85;;
39518;SDS011;25200;53.394;10.414;2023-03-11T00:27:45;11.15;;;5.13;;
39518;SDS011;25200;53.394;10.414;2023-03-11T00:30:12;9.45;;;5.05;;
39518;SDS011;25200;53.394;10.414;2023-03-11T00:32:38;8.55;;;4.95;;
39518;SDS011;25200;53.394;10.414;2023-03-11T00:35:04;9.70;;;5.03;;
39518;SDS011;25200;53.394;10.414;2023-03-11T00:37:30;9.82;;;5.20;;
39518;SDS011;25200;53.394;10.414;2023-03-11T00:39:56;8.00;;;4.38;;
39518;SDS011;25200;53.394;10.414;2023-03-11T00:42:23;9.15;;;5.05;;
39518;SDS011;25200;53.394;10.414;2023-03-11T00:44:49;11.02;;;5.32;;
39518;SDS011;25200;53.394;10.414;2023-03-11T00:47:14;11.68;;;4.32;;
39518;SDS011;25200;53.394;10.414;2023-03-11T00:49:40;8.68;;;4.95;;
39518;SDS011;25200;53.394;10.414;2023-03-11T00:52:06;10.77;;;5.47;;
39518;SDS011;25200;53.394;10.414;2023-03-11T00:54:31;8.75;;;4.47;;
39518;SDS011;25200;53.394;10.414;2023-03-11T00:56:57;9.18;;;5.30;;
39518;SDS011;25200;53.394;10.414;2023-03-11T00:59:23;8.77;;;5.05;;
39518;SDS011;25200;53.394;10.414;2023-03-11T01:01:48;10.30;;;5.40;;
39518;SDS011;25200;53.394;10.414;2023-03-11T01:04:14;9.50;;;5.32;;
39518;SDS011;25200;53.394;10.414;2023-03-11T01:06:39;11.55;;;5.30;;
39518;SDS011;25200;53.394;10.414;2023-03-11T01:09:05;10.38;;;5.28;;
39518;SDS011;25200;53.394;10.414;2023-03-11T01:11:31;10.38;;;5.70;;
39518;SDS011;25200;53.394;10.414;2023-03-11T01:13:56;9.98;;;5.75;;
39518;SDS011;25200;53.394;10.414;2023-03-11T01:16:22;12.55;;;6.45;;
39518;SDS011;25200;53.394;10.414;2023-03-11T01:18:48;11.25;;;6.07;;
39518;SDS011;25200;53.394;10.414;2023-03-11T01:21:14;10.00;;;5.60;;
39518;SDS011;25200;53.394;10.414;2023-03-11T01:23:40;12.32;;;6.28;;
39518;SDS011;25200;53.394;10.414;2023-03-11T01:26:06;11.38;;;5.55;;
39518;SDS011;25200;53.394;10.414;2023-03-11T01:28:32;11.90;;;6.60;;
39518;SDS011;25200;53.394;10.414;2023-03-11T01:30:58;12.75;;;6.57;;
39518;SDS011;25200;53.394;10.414;2023-03-11T01:33:24;11.80;;;6.47;;
39518;SDS011;25200;53.394;10.414;2023-03-11T01:35:50;13.60;;;7.72;;
39518;SDS011;25200;53.394;10.414;2023-03-11T01:38:15;15.10;;;7.05;;
39518;SDS011;25200;53.394;10.414;2023-03-11T01:46:22;13.35;;;7.22;;
39518;SDS011;25200;53.394;10.414;2023-03-11T01:48:52;13.30;;;7.65;;
39518;SDS011;25200;53.394;10.414;2023-03-11T01:51:24;15.57;;;6.97;;
39518;SDS011;25200;53.394;10.414;2023-03-11T01:53:55;16.02;;;7.95;;
39518;SDS011;25200;53.394;10.414;2023-03-11T01:56:23;14.75;;;7.43;;
39518;SDS011;25200;53.394;10.414;2023-03-11T01:58:49;13.15;;;7.72;;
39518;SDS011;25200;53.394;10.414;2023-03-11T02:01:18;16.02;;;8.48;;
39518;SDS011;25200;53.394;10.414;2023-03-11T02:03:45;16.92;;;8.00;;
39518;SDS011;25200;53.394;10.414;2023-03-11T02:06:13;14.73;;;8.27;;
39518;SDS011;25200;53.394;10.414;2023-03-11T02:08:47;14.63;;;7.45;;
39518;SDS011;25200;53.394;10.414;2023-03-11T02:11:18;15.23;;;8.07;;
39518;SDS011;25200;53.394;10.414;2023-03-11T02:13:46;14.07;;;7.78;;
39518;SDS011;25200;53.394;10.414;2023-03-11T02:16:13;15.95;;;8.32;;
39518;SDS011;25200;53.394;10.414;2023-03-11T02:18:40;14.27;;;7.85;;
39518;SDS011;25200;53.394;10.414;2023-03-11T02:26:54;13.32;;;7.40;;
39518;SDS011;25200;53.394;10.414;2023-03-11T02:29:29;15.30;;;7.90;;
39518;SDS011;25200;53.394;10.414;2023-03-11T02:31:57;15.32;;;7.93;;
39518;SDS011;25200;53.394;10.414;2023-03-11T02:34:29;15.60;;;7.80;;
39518;SDS011;25200;53.394;10.414;2023-03-11T02:36:57;14.60;;;7.53;;
39518;SDS011;25200;53.394;10.414;2023-03-11T02:39:42;15.23;;;8.40;;
39518;SDS011;25200;53.394;10.414;2023-03-11T02:42:11;13.77;;;6.90;;
39518;SDS011;25200;53.394;10.414;2023-03-11T02:44:59;14.13;;;7.75;;
39518;SDS011;25200;53.394;10.414;2023-03-11T02:47:30;15.18;;;7.68;;
39518;SDS011;25200;53.394;10.414;2023-03-11T02:49:56;14.77;;;8.48;;
39518;SDS011;25200;53.394;10.414;2023-03-11T02:52:24;14.02;;;7.68;;
39518;SDS011;25200;53.394;10.414;2023-03-11T02:54:51;13.50;;;7.88;;
39518;SDS011;25200;53.394;10.414;2023-03-11T02:57:17;14.05;;;7.38;;
39518;SDS011;25200;53.394;10.414;2023-03-11T02:59:43;13.65;;;7.72;;
39518;SDS011;25200;53.394;10.414;2023-03-11T03:02:08;17.20;;;7.82;;
39518;SDS011;25200;53.394;10.414;2023-03-11T03:04:34;12.88;;;7.07;;
39518;SDS011;25200;53.394;10.414;2023-03-11T03:07:00;15.75;;;7.47;;
39518;SDS011;25200;53.394;10.414;2023-03-11T03:09:25;13.52;;;7.05;;
39518;SDS011;25200;53.394;10.414;2023-03-11T03:11:51;16.05;;;8.05;;
39518;SDS011;25200;53.394;10.414;2023-03-11T03:14:17;13.57;;;7.25;;
39518;SDS011;25200;53.394;10.414;2023-03-11T03:16:42;14.30;;;7.32;;
39518;SDS011;25200;53.394;10.414;2023-03-11T03:19:08;13.20;;;7.13;;
39518;SDS011;25200;53.394;10.414;2023-03-11T03:21:34;15.25;;;7.53;;
39518;SDS011;25200;53.394;10.414;2023-03-11T03:23:59;10.68;;;6.93;;
39518;SDS011;25200;53.394;10.414;2023-03-11T03:26:25;14.30;;;7.88;;
39518;SDS011;25200;53.394;10.414;2023-03-11T03:28:50;13.60;;;7.43;;
39518;SDS011;25200;53.394;10.414;2023-03-11T03:31:16;13.18;;;6.80;;
39518;SDS011;25200;53.394;10.414;2023-03-11T03:33:42;14.00;;;7.13;;
39518;SDS011;25200;53.394;10.414;2023-03-11T03:36:09;13.57;;;7.50;;
39518;SDS011;25200;53.394;10.414;2023-03-11T03:38:37;13.35;;;6.95;;
39518;SDS011;25200;53.394;10.414;2023-03-11T03:41:02;13.05;;;6.90;;
39518;SDS011;25200;53.394;10.414;2023-03-11T03:43:28;11.40;;;6.72;;
39518;SDS011;25200;53.394;10.414;2023-03-11T03:45:55;13.48;;;7.50;;
39518;SDS011;25200;53.394;10.414;2023-03-11T03:48:22;15.18;;;7.43;;
39518;SDS011;25200;53.394;10.414;2023-03-11T03:50:47;13.32;;;7.65;;
39518;SDS011;25200;53.394;10.414;2023-03-11T03:53:13;13.20;;;7.45;;
39518;SDS011;25200;53.394;10.414;2023-03-11T03:55:39;14.55;;;7.30;;
39518;SDS011;25200;53.394;10.414;2023-03-11T03:58:04;14.32;;;7.43;;
39518;SDS011;25200;53.394;10.414;2023-03-11T04:00:30;11.32;;;6.70;;
39518;SDS011;25200;53.394;10.414;2023-03-11T04:02:56;14.45;;;7.32;;
39518;SDS011;25200;53.394;10.414;2023-03-11T04:05:21;13.73;;;7.18;;
39518;SDS011;25200;53.394;10.414;2023-03-11T04:07:50;14.63;;;6.80;;
39518;SDS011;25200;53.394;10.414;2023-03-11T04:10:16;13.35;;;7.22;;
39518;SDS011;25200;53.394;10.414;2023-03-11T04:12:42;13.48;;;7.45;;
39518;SDS011;25200;53.394;10.414;2023-03-11T04:15:08;13.40;;;7.15;;
39518;SDS011;25200;53.394;10.414;2023-03-11T04:17:34;11.20;;;6.50;;
39518;SDS011;25200;53.394;10.414;2023-03-11T04:20:00;12.95;;;7.45;;
39518;SDS011;25200;53.394;10.414;2023-03-11T04:22:26;14.45;;;7.47;;
39518;SDS011;25200;53.394;10.414;2023-03-11T04:24:51;11.25;;;6.35;;
39518;SDS011;25200;53.394;10.414;2023-03-11T04:27:17;14.55;;;7.75;;
39518;SDS011;25200;53.394;10.414;2023-03-11T04:29:42;13.98;;;6.90;;
39518;SDS011;25200;53.394;10.414;2023-03-11T04:32:08;12.52;;;6.55;;
39518;SDS011;25200;53.394;10.414;2023-03-11T04:34:34;12.93;;;6.82;;
39518;SDS011;25200;53.394;10.414;2023-03-11T04:36:59;10.75;;;6.82;;
39518;SDS011;25200;53.394;10.414;2023-03-11T04:39:25;11.85;;;6.90;;
39518;SDS011;25200;53.394;10.414;2023-03-11T04:41:51;11.65;;;6.60;;
39518;SDS011;25200;53.394;10.414;2023-03-11T04:44:16;12.60;;;7.07;;
39518;SDS011;25200;53.394;10.414;2023-03-11T04:46:42;13.60;;;7.00;;
39518;SDS011;25200;53.394;10.414;2023-03-11T04:49:07;12.35;;;6.13;;
39518;SDS011;25200;53.394;10.414;2023-03-11T04:51:34;11.38;;;6.20;;
39518;SDS011;25200;53.394;10.414;2023-03-11T04:54:00;13.27;;;7.07;;
39518;SDS011;25200;53.394;10.414;2023-03-11T04:56:25;10.93;;;6.35;;
39518;SDS011;25200;53.394;10.414;2023-03-11T04:58:51;13.07;;;7.13;;
39518;SDS011;25200;53.394;10.414;2023-03-11T05:01:17;10.77;;;6.25;;
39518;SDS011;25200;53.394;10.414;2023-03-11T05:03:42;11.15;;;6.30;;
39518;SDS011;25200;53.394;10.414;2023-03-11T05:06:08;10.75;;;5.60;;
39518;SDS011;25200;53.394;10.414;2023-03-11T05:08:33;11.85;;;6.03;;
39518;SDS011;25200;53.394;10.414;2023-03-11T05:10:59;15.40;;;6.15;;
39518;SDS011;25200;53.394;10.414;2023-03-11T05:13:25;14.13;;;6.30;;
39518;SDS011;25200;53.394;10.414;2023-03-11T05:15:50;11.90;;;6.38;;
39518;SDS011;25200;53.394;10.414;2023-03-11T05:18:16;11.80;;;6.63;;
39518;SDS011;25200;53.394;10.414;2023-03-11T05:20:41;11.90;;;6.30;;
39518;SDS011;25200;53.394;10.414;2023-03-11T05:23:07;10.57;;;6.10;;
39518;SDS011;25200;53.394;10.414;2023-03-11T05:25:33;15.40;;;6.78;;
39518;SDS011;25200;53.394;10.414;2023-03-11T05:27:59;13.20;;;6.90;;
39518;SDS011;25200;53.394;10.414;2023-03-11T05:30:25;12.55;;;6.38;;
39518;SDS011;25200;53.394;10.414;2023-03-11T05:32:51;12.27;;;6.60;;
39518;SDS011;25200;53.394;10.414;2023-03-11T05:35:16;11.60;;;5.88;;
39518;SDS011;25200;53.394;10.414;2023-03-11T05:37:43;13.48;;;6.38;;
39518;SDS011;25200;53.394;10.414;2023-03-11T05:40:09;11.77;;;6.47;;
39518;SDS011;25200;53.394;10.414;2023-03-11T05:42:36;11.27;;;6.30;;
39518;SDS011;25200;53.394;10.414;2023-03-11T05:45:02;13.55;;;6.30;;
39518;SDS011;25200;53.394;10.414;2023-03-11T05:47:28;11.20;;;5.97;;
39518;SDS011;25200;53.394;10.414;2023-03-11T05:49:54;12.65;;;6.65;;
39518;SDS011;25200;53.394;10.414;2023-03-11T05:52:20;11.82;;;6.32;;
39518;SDS011;25200;53.394;10.414;2023-03-11T05:54:48;10.07;;;5.43;;
39518;SDS011;25200;53.394;10.414;2023-03-11T05:57:15;10.18;;;5.60;;
39518;SDS011;25200;53.394;10.414;2023-03-11T05:59:41;14.55;;;6.10;;
39518;SDS011;25200;53.394;10.414;2023-03-11T06:02:07;11.13;;;6.38;;
39518;SDS011;25200;53.394;10.414;2023-03-11T06:04:33;10.30;;;5.70;;
39518;SDS011;25200;53.394;10.414;2023-03-11T06:06:58;13.43;;;6.68;;
39518;SDS011;25200;53.394;10.414;2023-03-11T06:09:24;12.45;;;7.05;;
39518;SDS011;25200;53.394;10.414;2023-03-11T06:11:50;14.77;;;6.72;;
39518;SDS011;25200;53.394;10.414;2023-03-11T06:14:15;14.13;;;6.28;;
39518;SDS011;25200;53.394;10.414;2023-03-11T06:16:41;13.10;;;7.00;;
39518;SDS011;25200;53.394;10.414;2023-03-11T06:19:07;12.82;;;6.75;;
39518;SDS011;25200;53.394;10.414;2023-03-11T06:21:33;13.32;;;6.70;;
39518;SDS011;25200;53.394;10.414;2023-03-11T06:23:59;14.65;;;6.40;;
39518;SDS011;25200;53.394;10.414;2023-03-11T06:26:24;12.30;;;6.05;;
39518;SDS011;25200;53.394;10.414;2023-03-11T06:28:50;10.10;;;5.43;;
39518;SDS011;25200;53.394;10.414;2023-03-11T06:31:18;13.70;;;5.65;;
39518;SDS011;25200;53.394;10.414;2023-03-11T06:33:46;11.77;;;5.22;;
39518;SDS011;25200;53.394;10.414;2023-03-11T06:36:13;11.68;;;5.57;;
39518;SDS011;25200;53.394;10.414;2023-03-11T06:38:40;10.77;;;5.53;;
39518;SDS011;25200;53.394;10.414;2023-03-11T06:41:07;13.45;;;6.13;;
39518;SDS011;25200;53.394;10.414;2023-03-11T06:43:33;12.93;;;6.00;;
39518;SDS011;25200;53.394;10.414;2023-03-11T06:45:59;11.95;;;6.20;;
39518;SDS011;25200;53.394;10.414;2023-03-11T06:48:26;13.18;;;5.70;;
39518;SDS011;25200;53.394;10.414;2023-03-11T06:50:55;12.80;;;6.03;;
39518;SDS011;25200;53.394;10.414;2023-03-11T06:53:22;10.60;;;5.75;;
39518;SDS011;25200;53.394;10.414;2023-03-11T06:58:29;12.13;;;5.97;;
39518;SDS011;25200;53.394;10.414;2023-03-11T07:00:58;11.05;;;6.15;;
39518;SDS011;25200;53.394;10.414;2023-03-11T07:03:28;9.95;;;5.63;;
39518;SDS011;25200;53.394;10.414;2023-03-11T07:05:55;10.23;;;5.53;;
39518;SDS011;25200;53.394;10.414;2023-03-11T07:08:21;10.20;;;5.90;;
39518;SDS011;25200;53.394;10.414;2023-03-11T07:10:57;10.40;;;5.95;;
39518;SDS011;25200;53.394;10.414;2023-03-11T07:13:24;10.57;;;5.43;;
39518;SDS011;25200;53.394;10.414;2023-03-11T07:15:58;10.65;;;5.28;;
39518;SDS011;25200;53.394;10.414;2023-03-11T07:18:34;12.68;;;5.90;;
39518;SDS011;25200;53.394;10.414;2023-03-11T07:21:04;10.13;;;5.70;;
39518;SDS011;25200;53.394;10.414;2023-03-11T07:23:31;11.82;;;5.90;;
39518;SDS011;25200;53.394;10.414;2023-03-11T07:25:57;13.65;;;5.55;;
39518;SDS011;25200;53.394;10.414;2023-03-11T07:28:23;13.55;;;6.25;;
39518;SDS011;25200;53.394;10.414;2023-03-11T07:30:52;11.10;;;6.03;;
39518;SDS011;25200;53.394;10.414;2023-03-11T07:33:22;10.25;;;5.68;;
39518;SDS011;25200;53.394;10.414;2023-03-11T07:35:54;10.45;;;5.82;;
39518;SDS011;25200;53.394;10.414;2023-03-11T07:38:20;11.70;;;5.72;;
39518;SDS011;25200;53.394;10.414;2023-03-11T07:40:46;11.73;;;5.78;;
39518;SDS011;25200;53.394;10.414;2023-03-11T07:43:11;10.93;;;5.63;;
39518;SDS011;25200;53.394;10.414;2023-03-11T07:45:37;11.65;;;5.68;;
39518;SDS011;25200;53.394;10.414;2023-03-11T07:48:03;11.73;;;5.90;;
39518;SDS011;25200;53.394;10.414;2023-03-11T07:50:29;9.93;;;5.82;;
39518;SDS011;25200;53.394;10.414;2023-03-11T07:52:54;13.25;;;6.15;;
39518;SDS011;25200;53.394;10.414;2023-03-11T07:55:20;12.90;;;5.70;;
39518;SDS011;25200;53.394;10.414;2023-03-11T07:57:46;10.70;;;6.05;;
39518;SDS011;25200;53.394;10.414;2023-03-11T08:00:13;10.60;;;5.47;;
39518;SDS011;25200;53.394;10.414;2023-03-11T08:02:39;11.60;;;5.65;;
39518;SDS011;25200;53.394;10.414;2023-03-11T08:05:05;10.85;;;5.68;;
39518;SDS011;25200;53.394;10.414;2023-03-11T08:07:31;10.93;;;5.40;;
39518;SDS011;25200;53.394;10.414;2023-03-11T08:09:57;11.23;;;5.57;;
39518;SDS011;25200;53.394;10.414;2023-03-11T08:12:23;10.88;;;5.55;;
39518;SDS011;25200;53.394;10.414;2023-03-11T08:14:49;11.27;;;5.45;;
39518;SDS011;25200;53.394;10.414;2023-03-11T08:17:14;10.23;;;5.65;;
39518;SDS011;25200;53.394;10.414;2023-03-11T08:19:40;11.15;;;5.55;;
39518;SDS011;25200;53.394;10.414;2023-03-11T08:22:06;11.40;;;5.28;;
39518;SDS011;25200;53.394;10.414;2023-03-11T08:24:31;11.25;;;5.05;;
39518;SDS011;25200;53.394;10.414;2023-03-11T08:26:57;11.48;;;6.13;;
39518;SDS011;25200;53.394;10.414;2023-03-11T08:29:23;11.60;;;5.53;;
39518;SDS011;25200;53.394;10.414;2023-03-11T08:31:49;9.00;;;4.68;;
39518;SDS011;25200;53.394;10.414;2023-03-11T08:34:15;10.90;;;5.65;;
39518;SDS011;25200;53.394;10.414;2023-03-11T08:36:41;10.93;;;5.60;;
39518;SDS011;25200;53.394;10.414;2023-03-11T08:39:07;10.25;;;5.50;;
39518;SDS011;25200;53.394;10.414;2023-03-11T08:41:33;9.57;;;5.05;;
39518;SDS011;25200;53.394;10.414;2023-03-11T08:43:59;9.88;;;5.10;;
39518;SDS011;25200;53.394;10.414;2023-03-11T08:46:28;11.65;;;4.97;;
39518;SDS011;25200;53.394;10.414;2023-03-11T08:48:58;11.23;;;5.00;;
39518;SDS011;25200;53.394;10.414;2023-03-11T08:51:25;11.43;;;4.93;;
39518;SDS011;25200;53.394;10.414;2023-03-11T08:53:52;9.95;;;5.20;;
39518;SDS011;25200;53.394;10.414;2023-03-11T08:56:18;9.98;;;4.72;;
39518;SDS011;25200;53.394;10.414;2023-03-11T08:58:44;10.15;;;4.55;;
39518;SDS011;25200;53.394;10.414;2023-03-11T09:01:11;12.25;;;4.90;;
39518;SDS011;25200;53.394;10.414;2023-03-11T09:03:37;12.68;;;5.05;;
39518;SDS011;25200;53.394;10.414;2023-03-11T09:06:05;9.60;;;4.88;;
39518;SDS011;25200;53.394;10.414;2023-03-11T09:08:32;10.40;;;4.90;;
39518;SDS011;25200;53.394;10.414;2023-03-11T09:10:58;10.05;;;4.40;;
39518;SDS011;25200;53.394;10.414;2023-03-11T09:13:24;9.77;;;4.82;;
39518;SDS011;25200;53.394;10.414;2023-03-11T09:15:50;8.75;;;4.05;;
39518;SDS011;25200;53.394;10.414;2023-03-11T09:18:16;11.15;;;4.68;;
39518;SDS011;25200;53.394;10.414;2023-03-11T09:20:42;9.30;;;4.63;;
39518;SDS011;25200;53.394;10.414;2023-03-11T09:23:09;8.57;;;4.57;;
39518;SDS011;25200;53.394;10.414;2023-03-11T09:25:36;10.02;;;4.60;;
39518;SDS011;25200;53.394;10.414;2023-03-11T09:28:02;10.18;;;4.68;;
39518;SDS011;25200;53.394;10.414;2023-03-11T09:30:27;10.15;;;4.82;;
39518;SDS011;25200;53.394;10.414;2023-03-11T09:32:53;9.05;;;4.40;;
39518;SDS011;25200;53.394;10.414;2023-03-11T09:35:19;8.45;;;4.38;;
39518;SDS011;25200;53.394;10.414;2023-03-11T09:37:48;8.85;;;4.22;;
39518;SDS011;25200;53.394;10.414;2023-03-11T09:40:14;11.57;;;4.95;;
39518;SDS011;25200;53.394;10.414;2023-03-11T09:42:44;11.48;;;4.50;;
39518;SDS011;25200;53.394;10.414;2023-03-11T09:45:17;10.27;;;4.20;;
39518;SDS011;25200;53.394;10.414;2023-03-11T09:55:55;10.55;;;4.38;;
39518;SDS011;25200;53.394;10.414;2023-03-11T10:00:55;8.25;;;3.83;;
39518;SDS011;25200;53.394;10.414;2023-03-11T10:03:39;9.27;;;4.60;;
39518;SDS011;25200;53.394;10.414;2023-03-11T10:06:15;9.60;;;4.13;;
39518;SDS011;25200;53.394;10.414;2023-03-11T10:14:05;9.07;;;3.83;;
39518;SDS011;25200;53.394;10.414;2023-03-11T10:22:08;8.63;;;3.95;;
39518;SDS011;25200;53.394;10.414;2023-03-11T10:27:31;6.83;;;3.53;;
39518;SDS011;25200;53.394;10.414;2023-03-11T10:30:05;10.35;;;4.05;;
39518;SDS011;25200;53.394;10.414;2023-03-11T10:32:44;12.70;;;3.78;;
39518;SDS011;25200;53.394;10.414;2023-03-11T10:37:50;6.75;;;3.03;;
39518;SDS011;25200;53.394;10.414;2023-03-11T10:40:31;7.30;;;3.20;;
39518;SDS011;25200;53.394;10.414;2023-03-11T10:43:01;8.60;;;4.05;;
39518;SDS011;25200;53.394;10.414;2023-03-11T10:45:37;9.82;;;4.10;;
39518;SDS011;25200;53.394;10.414;2023-03-11T10:48:12;8.95;;;4.22;;
39518;SDS011;25200;53.394;10.414;2023-03-11T10:50:45;9.77;;;3.92;;
39518;SDS011;25200;53.394;10.414;2023-03-11T10:53:26;8.45;;;3.60;;
39518;SDS011;25200;53.394;10.414;2023-03-11T10:55:53;7.68;;;3.55;;
39518;SDS011;25200;53.394;10.414;2023-03-11T10:58:22;7.00;;;3.63;;
39518;SDS011;25200;53.394;10.414;2023-03-11T11:00:58;10.20;;;3.90;;
39518;SDS011;25200;53.394;10.414;2023-03-11T11:03:43;8.07;;;3.83;;
39518;SDS011;25200;53.394;10.414;2023-03-11T11:11:31;6.93;;;3.20;;
39518;SDS011;25200;53.394;10.414;2023-03-11T11:14:02;6.43;;;3.15;;
39518;SDS011;25200;53.394;10.414;2023-03-11T11:16:28;9.13;;;2.90;;
39518;SDS011;25200;53.394;10.414;2023-03-11T11:21:35;6.03;;;2.80;;
39518;SDS011;25200;53.394;10.414;2023-03-11T11:26:30;6.72;;;2.30;;
39518;SDS011;25200;53.394;10.414;2023-03-11T11:31:43;7.93;;;2.60;;
39518;SDS011;25200;53.394;10.414;2023-03-11T11:37:05;5.55;;;2.60;;
39518;SDS011;25200;53.394;10.414;2023-03-11T11:39:51;6.75;;;3.00;;
39518;SDS011;25200;53.394;10.414;2023-03-11T11:42:21;6.32;;;2.60;;
39518;SDS011;25200;53.394;10.414;2023-03-11T11:44:50;7.28;;;2.80;;
39518;SDS011;25200;53.394;10.414;2023-03-11T11:47:22;8.07;;;3.20;;
39518;SDS011;25200;53.394;10.414;2023-03-11T11:49:53;9.77;;;2.70;;
39518;SDS011;25200;53.394;10.414;2023-03-11T11:52:26;10.70;;;2.70;;
39518;SDS011;25200;53.394;10.414;2023-03-11T11:57:48;4.85;;;2.17;;
39518;SDS011;25200;53.394;10.414;2023-03-11T12:03:13;7.68;;;2.70;;
39518;SDS011;25200;53.394;10.414;2023-03-11T12:08:30;6.47;;;2.50;;
39518;SDS011;25200;53.394;10.414;2023-03-11T12:11:08;11.55;;;2.78;;
39518;SDS011;25200;53.394;10.414;2023-03-11T12:18:53;10.77;;;2.55;;
39518;SDS011;25200;53.394;10.414;2023-03-11T12:24:44;5.68;;;2.35;;
39518;SDS011;25200;53.394;10.414;2023-03-11T12:27:26;5.25;;;2.15;;
39518;SDS011;25200;53.394;10.414;2023-03-11T12:30:02;8.77;;;2.60;;
39518;SDS011;25200;53.394;10.414;2023-03-11T12:32:37;7.00;;;2.05;;
39518;SDS011;25200;53.394;10.414;2023-03-11T12:45:57;5.40;;;2.22;;
39518;SDS011;25200;53.394;10.414;2023-03-11T12:48:33;5.95;;;2.00;;
39518;SDS011;25200;53.394;10.414;2023-03-11T12:51:46;6.93;;;2.28;;
39518;SDS011;25200;53.394;10.414;2023-03-11T13:10:51;8.07;;;2.15;;
39518;SDS011;25200;53.394;10.414;2023-03-11T13:15:52;6.25;;;1.92;;
39518;SDS011;25200;53.394;10.414;2023-03-11T13:18:28;7.20;;;2.00;;
39518;SDS011;25200;53.394;10.414;2023-03-11T13:20:57;4.85;;;2.15;;
39518;SDS011;25200;53.394;10.414;2023-03-11T13:36:54;6.65;;;1.77;;
39518;SDS011;25200;53.394;10.414;2023-03-11T13:44:51;5.35;;;1.90;;
39518;SDS011;25200;53.394;10.414;2023-03-11T13:47:17;7.43;;;1.83;;
39518;SDS011;25200;53.394;10.414;2023-03-11T13:52:17;7.68;;;2.20;;
39518;SDS011;25200;53.394;10.414;2023-03-11T13:55:02;8.50;;;1.95;;
39518;SDS011;25200;53.394;10.414;2023-03-11T13:57:32;5.63;;;1.88;;
39518;SDS011;25200;53.394;10.414;2023-03-11T14:00:13;4.03;;;1.52;;
39518;SDS011;25200;53.394;10.414;2023-03-11T14:02:52;4.72;;;1.65;;
39518;SDS011;25200;53.394;10.414;2023-03-11T14:05:21;6.90;;;1.70;;
39518;SDS011;25200;53.394;10.414;2023-03-11T14:07:49;5.03;;;1.70;;
39518;SDS011;25200;53.394;10.414;2023-03-11T14:10:33;6.00;;;1.90;;
39518;SDS011;25200;53.394;10.414;2023-03-11T14:13:13;7.03;;;1.67;;
39518;SDS011;25200;53.394;10.414;2023-03-11T14:15:45;5.97;;;1.50;;
39518;SDS011;25200;53.394;10.414;2023-03-11T14:18:27;3.97;;;1.65;;
39518;SDS011;25200;53.394;10.414;2023-03-11T14:20:53;6.07;;;1.48;;
39518;SDS011;25200;53.394;10.414;2023-03-11T14:23:19;3.38;;;1.48;;
39518;SDS011;25200;53.394;10.414;2023-03-11T14:25:45;4.25;;;1.48;;
39518;SDS011;25200;53.394;10.414;2023-03-11T14:28:19;3.50;;;1.35;;
39518;SDS011;25200;53.394;10.414;2023-03-11T14:30:55;4.05;;;1.52;;
39518;SDS011;25200;53.394;10.414;2023-03-11T14:33:23;6.38;;;1.48;;
39518;SDS011;25200;53.394;10.414;2023-03-11T14:35:50;10.63;;;1.80;;
39518;SDS011;25200;53.394;10.414;2023-03-11T14:38:21;8.57;;;1.77;;
39518;SDS011;25200;53.394;10.414;2023-03-11T14:40:52;5.38;;;1.80;;
39518;SDS011;25200;53.394;10.414;2023-03-11T14:43:20;8.05;;;1.75;;
39518;SDS011;25200;53.394;10.414;2023-03-11T14:45:46;8.75;;;1.85;;
39518;SDS011;25200;53.394;10.414;2023-03-11T14:50:48;5.43;;;1.85;;
39518;SDS011;25200;53.394;10.414;2023-03-11T15:00:58;5.80;;;1.70;;
39518;SDS011;25200;53.394;10.414;2023-03-11T15:03:25;6.32;;;1.90;;
39518;SDS011;25200;53.394;10.414;2023-03-11T15:05:56;3.97;;;1.70;;
39518;SDS011;25200;53.394;10.414;2023-03-11T15:08:55;5.40;;;1.60;;
39518;SDS011;25200;53.394;10.414;2023-03-11T15:11:24;6.65;;;1.73;;
39518;SDS011;25200;53.394;10.414;2023-03-11T15:13:52;6.25;;;1.60;;
39518;SDS011;25200;53.394;10.414;2023-03-11T15:16:28;5.28;;;1.60;;
39518;SDS011;25200;53.394;10.414;2023-03-11T15:19:21;4.93;;;1.17;;
39518;SDS011;25200;53.394;10.414;2023-03-11T15:21:48;3.25;;;1.30;;
39518;SDS011;25200;53.394;10.414;2023-03-11T15:24:19;6.35;;;1.70;;
39518;SDS011;25200;53.394;10.414;2023-03-11T15:26:57;7.03;;;1.50;;
39518;SDS011;25200;53.394;10.414;2023-03-11T15:29:26;4.90;;;1.40;;
39518;SDS011;25200;53.394;10.414;2023-03-11T15:31:53;6.78;;;1.60;;
39518;SDS011;25200;53.394;10.414;2023-03-11T15:34:24;5.10;;;1.25;;
39518;SDS011;25200;53.394;10.414;2023-03-11T15:47:20;3.47;;;1.40;;
39518;SDS011;25200;53.394;10.414;2023-03-11T15:49:47;5.00;;;1.40;;
39518;SDS011;25200;53.394;10.414;2023-03-11T15:52:13;6.65;;;1.48;;
39518;SDS011;25200;53.394;10.414;2023-03-11T15:54:40;3.33;;;1.17;;
39518;SDS011;25200;53.394;10.414;2023-03-11T15:57:06;7.72;;;1.77;;
39518;SDS011;25200;53.394;10.414;2023-03-11T15:59:34;6.32;;;1.35;;
39518;SDS011;25200;53.394;10.414;2023-03-11T16:02:01;3.78;;;1.30;;
39518;SDS011;25200;53.394;10.414;2023-03-11T16:04:27;5.53;;;1.50;;
39518;SDS011;25200;53.394;10.414;2023-03-11T16:06:53;7.30;;;2.20;;
39518;SDS011;25200;53.394;10.414;2023-03-11T16:09:19;8.85;;;2.60;;
39518;SDS011;25200;53.394;10.414;2023-03-11T16:11:45;9.00;;;2.17;;
39518;SDS011;25200;53.394;10.414;2023-03-11T16:14:18;7.32;;;2.88;;
39518;SDS011;25200;53.394;10.414;2023-03-11T16:16:44;9.55;;;2.70;;
39518;SDS011;25200;53.394;10.414;2023-03-11T16:19:11;11.18;;;2.92;;
39518;SDS011;25200;53.394;10.414;2023-03-11T16:21:41;12.10;;;3.10;;
39518;SDS011;25200;53.394;10.414;2023-03-11T16:24:15;8.70;;;2.30;;
39518;SDS011;25200;53.394;10.414;2023-03-11T16:26:46;9.18;;;1.88;;
39518;SDS011;25200;53.394;10.414;2023-03-11T16:29:12;6.93;;;2.40;;
39518;SDS011;25200;53.394;10.414;2023-03-11T16:31:39;8.15;;;1.70;;
39518;SDS011;25200;53.394;10.414;2023-03-11T16:34:05;4.07;;;1.65;;
39518;SDS011;25200;53.394;10.414;2023-03-11T16:36:31;4.85;;;1.63;;
39518;SDS011;25200;53.394;10.414;2023-03-11T16:38:56;8.55;;;1.98;;
39518;SDS011;25200;53.394;10.414;2023-03-11T16:41:22;9.38;;;2.20;;
39518;SDS011;25200;53.394;10.414;2023-03-11T16:43:47;6.55;;;1.95;;
39518;SDS011;25200;53.394;10.414;2023-03-11T16:46:13;5.65;;;1.75;;
39518;SDS011;25200;53.394;10.414;2023-03-11T16:48:39;4.95;;;1.83;;
39518;SDS011;25200;53.394;10.414;2023-03-11T16:51:05;7.43;;;1.70;;
39518;SDS011;25200;53.394;10.414;2023-03-11T16:53:30;4.65;;;1.33;;
39518;SDS011;25200;53.394;10.414;2023-03-11T16:55:56;9.25;;;2.80;;
39518;SDS011;25200;53.394;10.414;2023-03-11T16:58:22;6.07;;;1.70;;